createdAt,value
2023-05-14T00:02:26.739Z,13.10
2023-05-14T00:04:54.424Z,13.09
2023-05-14T00:07:22.063Z,13.08
2023-05-14T00:09:49.685Z,13.07
2023-05-14T00:12:17.295Z,13.03
2023-05-14T00:14:44.919Z,12.98
2023-05-14T00:17:12.518Z,12.96
2023-05-14T00:19:41.901Z,12.93
2023-05-14T00:22:09.661Z,12.90
2023-05-14T00:24:37.369Z,12.87
2023-05-14T00:27:05.274Z,12.82
2023-05-14T00:29:32.924Z,12.77
2023-05-14T00:32:00.869Z,12.72
2023-05-14T00:34:28.574Z,12.67
2023-05-14T00:36:56.171Z,12.64
2023-05-14T00:39:23.803Z,12.60
2023-05-14T00:41:51.521Z,12.56
2023-05-14T00:44:19.095Z,12.51
2023-05-14T00:46:47.230Z,12.48
2023-05-14T00:49:15.917Z,12.44
2023-05-14T00:51:46.846Z,12.42
2023-05-14T00:54:16.736Z,12.39
2023-05-14T00:56:46.583Z,12.35
2023-05-14T00:59:14.251Z,12.31
2023-05-14T01:01:42.475Z,12.27
2023-05-14T01:04:11.645Z,12.24
2023-05-14T01:06:55.198Z,12.22
2023-05-14T01:09:32.423Z,12.20
2023-05-14T01:12:32.015Z,12.15
2023-05-14T01:15:18.953Z,12.09
2023-05-14T01:17:57.807Z,12.03
2023-05-14T01:20:26.883Z,12.00
2023-05-14T01:22:54.523Z,11.96
2023-05-14T01:25:22.115Z,11.93
2023-05-14T01:27:52.680Z,11.91
2023-05-14T01:30:31.862Z,11.93
2023-05-14T01:33:06.166Z,11.92
2023-05-14T01:35:33.969Z,11.91
2023-05-14T01:38:04.951Z,11.91
2023-05-14T01:40:34.069Z,11.90
2023-05-14T01:43:02.452Z,11.88
2023-05-14T01:45:30.606Z,11.86
2023-05-14T01:47:58.410Z,11.85
2023-05-14T01:50:26.323Z,11.84
2023-05-14T01:52:56.392Z,11.83
2023-05-14T01:55:25.466Z,11.82
2023-05-14T01:57:53.607Z,11.83
2023-05-14T02:00:23.878Z,11.84
2023-05-14T02:02:51.865Z,11.83
2023-05-14T02:05:19.684Z,11.80
2023-05-14T02:07:47.320Z,11.80
2023-05-14T02:10:14.940Z,11.76
2023-05-14T02:12:42.591Z,11.74
2023-05-14T02:15:11.105Z,11.69
2023-05-14T02:17:38.844Z,11.63
2023-05-14T02:20:07.626Z,11.59
2023-05-14T02:22:35.398Z,11.55
2023-05-14T02:25:03.186Z,11.53
2023-05-14T02:27:30.813Z,11.46
2023-05-14T02:30:00.755Z,11.40
2023-05-14T02:32:28.683Z,11.37
2023-05-14T02:34:56.451Z,11.34
2023-05-14T02:37:24.058Z,11.32
2023-05-14T02:39:53.298Z,11.29
2023-05-14T02:42:23.591Z,11.25
2023-05-14T02:44:52.228Z,11.21
2023-05-14T02:47:19.898Z,11.18
2023-05-14T02:49:47.544Z,11.15
2023-05-14T02:52:15.140Z,11.12
2023-05-14T02:54:42.995Z,11.11
2023-05-14T02:57:10.651Z,11.09
2023-05-14T02:59:38.251Z,11.08
2023-05-14T03:02:06.985Z,11.07
2023-05-14T03:04:35.256Z,11.05
2023-05-14T03:07:03.022Z,11.06
2023-05-14T03:09:30.623Z,11.04
2023-05-14T03:11:58.273Z,11.05
2023-05-14T03:14:26.001Z,11.05
2023-05-14T03:16:53.659Z,11.05
2023-05-14T03:19:21.422Z,11.06
2023-05-14T03:21:50.008Z,11.07
2023-05-14T03:24:17.604Z,11.06
2023-05-14T03:26:45.236Z,11.07
2023-05-14T03:29:12.885Z,11.07
2023-05-14T03:31:41.394Z,11.05
2023-05-14T03:34:09.249Z,11.07
2023-05-14T03:36:38.818Z,11.08
2023-05-14T03:39:09.689Z,11.10
2023-05-14T03:41:37.654Z,11.14
2023-05-14T03:44:06.233Z,11.22
2023-05-14T03:46:33.925Z,11.28
2023-05-14T03:49:01.672Z,11.36
2023-05-14T03:51:29.527Z,11.43
2023-05-14T03:54:01.056Z,11.49
2023-05-14T03:56:28.788Z,11.54
2023-05-14T03:58:56.406Z,11.61
2023-05-14T04:01:24.089Z,11.70
2023-05-14T04:03:51.894Z,11.75
2023-05-14T04:06:19.719Z,11.79
2023-05-14T04:08:47.323Z,11.85
2023-05-14T04:11:14.971Z,11.93
2023-05-14T04:13:43.045Z,12.00
2023-05-14T04:16:11.388Z,12.04
2023-05-14T04:18:39.181Z,12.08
2023-05-14T04:21:06.854Z,12.15
2023-05-14T04:23:34.520Z,12.24
2023-05-14T04:26:02.130Z,12.34
2023-05-14T04:28:29.702Z,12.40
2023-05-14T04:30:57.842Z,12.46
2023-05-14T04:33:25.515Z,12.53
2023-05-14T04:35:54.240Z,12.60
2023-05-14T04:38:21.820Z,12.67
2023-05-14T04:40:49.435Z,12.77
2023-05-14T04:43:17.474Z,12.85
2023-05-14T04:45:45.677Z,12.90
2023-05-14T04:48:13.311Z,12.97
2023-05-14T04:50:41.017Z,13.05
2023-05-14T04:53:08.671Z,13.12
2023-05-14T04:55:36.520Z,13.20
2023-05-14T04:58:04.139Z,13.28
2023-05-14T05:00:33.268Z,13.34
2023-05-14T05:03:00.996Z,13.39
2023-05-14T05:05:28.660Z,13.47
2023-05-14T05:07:56.330Z,13.55
2023-05-14T05:10:24.250Z,13.62
2023-05-14T05:12:52.231Z,13.69
2023-05-14T05:15:19.867Z,13.76
2023-05-14T05:17:47.525Z,13.83
2023-05-14T05:20:15.345Z,13.92
2023-05-14T05:22:42.957Z,14.00
2023-05-14T05:25:12.028Z,14.08
2023-05-14T05:27:39.649Z,14.16
2023-05-14T05:30:08.238Z,14.25
2023-05-14T05:32:36.719Z,14.33
2023-05-14T05:35:04.863Z,14.45
2023-05-14T05:37:33.033Z,14.57
2023-05-14T05:40:00.641Z,14.70
2023-05-14T05:42:28.294Z,14.82
2023-05-14T05:44:56.218Z,14.97
2023-05-14T05:47:24.002Z,15.10
2023-05-14T05:49:51.676Z,15.24
2023-05-14T05:52:19.476Z,15.38
2023-05-14T05:54:47.070Z,15.52
2023-05-14T05:57:14.642Z,15.66
2023-05-14T05:59:42.252Z,15.80
2023-05-14T06:02:09.884Z,15.93
2023-05-14T06:04:37.557Z,16.05
2023-05-14T06:07:05.170Z,16.17
2023-05-14T06:09:32.785Z,16.29
2023-05-14T06:12:00.543Z,16.40
2023-05-14T06:14:28.209Z,16.52
2023-05-14T06:16:55.881Z,16.64
2023-05-14T06:19:23.992Z,16.76
2023-05-14T06:21:51.621Z,16.87
2023-05-14T06:24:20.106Z,16.98
2023-05-14T06:26:49.276Z,17.10
2023-05-14T06:29:17.012Z,17.22
2023-05-14T06:31:46.425Z,17.34
2023-05-14T06:34:14.142Z,17.44
2023-05-14T06:36:41.771Z,17.55
2023-05-14T06:39:09.876Z,17.66
2023-05-14T06:41:37.501Z,17.77
2023-05-14T06:44:05.211Z,17.88
2023-05-14T06:46:32.804Z,18.00
2023-05-14T06:49:00.489Z,18.10
2023-05-14T06:51:28.133Z,18.22
2023-05-14T06:53:56.232Z,18.33
2023-05-14T06:56:23.913Z,18.42
2023-05-14T06:58:51.533Z,18.53
2023-05-14T07:01:19.132Z,18.64
2023-05-14T07:03:46.770Z,18.78
2023-05-14T07:06:14.479Z,18.90
2023-05-14T07:08:45.922Z,19.00
2023-05-14T07:11:13.843Z,19.12
2023-05-14T07:13:41.754Z,19.23
2023-05-14T07:16:12.229Z,19.36
2023-05-14T07:18:40.297Z,19.48
2023-05-14T07:21:08.012Z,19.58
2023-05-14T07:23:38.427Z,19.71
2023-05-14T07:26:06.942Z,19.84
2023-05-14T07:28:35.308Z,19.92
2023-05-14T07:31:08.666Z,20.04
2023-05-14T07:33:36.601Z,20.17
2023-05-14T07:36:05.219Z,20.29
2023-05-14T07:38:32.879Z,20.37
2023-05-14T07:41:00.480Z,20.45
2023-05-14T07:43:28.119Z,20.50
2023-05-14T07:45:56.399Z,20.58
2023-05-14T07:48:24.044Z,20.69
2023-05-14T07:50:51.785Z,20.80
2023-05-14T07:53:19.361Z,20.86
2023-05-14T07:55:49.109Z,20.91
2023-05-14T07:58:16.721Z,20.94
2023-05-14T08:00:44.445Z,20.89
2023-05-14T08:03:12.203Z,20.92
2023-05-14T08:05:40.094Z,21.04
2023-05-14T08:08:07.732Z,21.08
2023-05-14T08:10:35.640Z,21.14
2023-05-14T08:13:03.426Z,21.21
2023-05-14T08:15:31.071Z,21.25
2023-05-14T08:18:03.399Z,21.34
2023-05-14T08:20:31.285Z,21.44
2023-05-14T08:22:58.950Z,21.50
2023-05-14T08:25:26.588Z,21.58
2023-05-14T08:27:54.250Z,21.66
2023-05-14T08:30:22.901Z,21.70
2023-05-14T08:32:51.733Z,21.73
2023-05-14T08:35:19.557Z,21.76
2023-05-14T08:37:47.313Z,21.83
2023-05-14T08:40:16.536Z,21.93
2023-05-14T08:42:45.140Z,22.04
2023-05-14T08:45:21.160Z,22.08
2023-05-14T08:47:51.054Z,22.12
2023-05-14T08:50:23.538Z,22.17
2023-05-14T08:52:52.843Z,22.25
2023-05-14T08:55:20.962Z,22.34
2023-05-14T08:57:48.652Z,22.34
2023-05-14T09:00:16.477Z,22.32
2023-05-14T09:02:44.771Z,22.36
2023-05-14T09:05:13.129Z,22.41
2023-05-14T09:07:41.284Z,22.58
2023-05-14T09:10:10.374Z,22.67
2023-05-14T09:12:37.956Z,22.73
2023-05-14T09:15:06.599Z,22.90
2023-05-14T09:17:34.666Z,22.93
2023-05-14T09:20:03.998Z,22.99
2023-05-14T09:22:34.526Z,23.03
2023-05-14T09:25:04.685Z,23.13
2023-05-14T09:27:33.548Z,23.16
2023-05-14T09:30:17.489Z,23.24
2023-05-14T09:32:46.032Z,23.40
2023-05-14T09:35:22.220Z,23.51
2023-05-14T09:37:52.347Z,23.60
2023-05-14T09:40:22.323Z,23.73
2023-05-14T09:42:50.729Z,23.81
2023-05-14T09:45:18.432Z,23.89
2023-05-14T09:47:46.363Z,23.98
2023-05-14T09:50:14.238Z,24.06
2023-05-14T09:52:42.466Z,24.10
2023-05-14T09:55:10.116Z,23.74
2023-05-14T09:57:37.884Z,23.37
2023-05-14T10:00:06.650Z,23.13
2023-05-14T10:02:38.872Z,23.25
2023-05-14T10:05:07.953Z,23.40
2023-05-14T10:07:48.389Z,23.49
2023-05-14T10:10:18.973Z,23.76
2023-05-14T10:12:52.778Z,23.98
2023-05-14T10:15:49.030Z,24.25
2023-05-14T10:18:20.251Z,24.51
2023-05-14T10:20:53.584Z,24.69
2023-05-14T10:23:21.770Z,24.85
2023-05-14T10:25:49.989Z,24.60
2023-05-14T10:28:17.972Z,24.38
2023-05-14T10:30:49.876Z,24.62
2023-05-14T10:33:18.698Z,24.80
2023-05-14T10:36:06.148Z,24.57
2023-05-14T10:38:35.729Z,24.53
2023-05-14T10:41:21.340Z,24.71
2023-05-14T10:43:50.360Z,24.93
2023-05-14T10:46:18.157Z,24.96
2023-05-14T10:48:45.817Z,24.65
2023-05-14T10:51:16.774Z,24.18
2023-05-14T10:53:45.099Z,23.90
2023-05-14T10:56:14.323Z,23.78
2023-05-14T10:58:44.316Z,23.83
2023-05-14T11:01:13.191Z,23.80
2023-05-14T11:03:46.062Z,24.03
2023-05-14T11:06:15.357Z,24.20
2023-05-14T11:08:44.356Z,24.13
2023-05-14T11:11:12.090Z,23.96
2023-05-14T11:13:41.412Z,23.80
2023-05-14T11:16:21.625Z,23.80
2023-05-14T11:19:03.330Z,24.16
2023-05-14T11:21:32.602Z,24.38
2023-05-14T11:24:01.157Z,24.54
2023-05-14T11:26:28.910Z,24.49
2023-05-14T11:28:56.715Z,24.44
2023-05-14T11:31:25.389Z,24.80
2023-05-14T11:33:53.544Z,25.08
2023-05-14T11:36:21.893Z,24.91
2023-05-14T11:38:51.346Z,24.59
2023-05-14T11:41:21.398Z,24.30
2023-05-14T11:43:49.370Z,24.35
2023-05-14T11:46:21.669Z,24.57
2023-05-14T11:48:49.544Z,24.47
2023-05-14T11:51:17.305Z,24.35
2023-05-14T11:53:45.120Z,24.11
2023-05-14T11:56:12.834Z,23.84
2023-05-14T11:58:40.620Z,23.67
2023-05-14T12:01:13.614Z,23.54
2023-05-14T12:03:42.221Z,23.45
2023-05-14T12:06:10.132Z,23.39
2023-05-14T12:08:37.783Z,23.37
2023-05-14T12:11:05.468Z,23.43
2023-05-14T12:13:33.441Z,23.45
2023-05-14T12:16:02.398Z,23.44
2023-05-14T12:18:32.400Z,23.45
2023-05-14T12:21:04.998Z,23.68
2023-05-14T12:23:33.055Z,23.95
2023-05-14T12:26:06.839Z,24.45
2023-05-14T12:28:38.493Z,24.94
2023-05-14T12:31:06.926Z,25.45
2023-05-14T12:33:34.760Z,26.07
2023-05-14T12:36:13.554Z,26.40
2023-05-14T12:38:49.904Z,26.71
2023-05-14T12:41:18.097Z,27.05
2023-05-14T12:43:49.240Z,27.48
2023-05-14T12:46:17.005Z,27.80
2023-05-14T12:48:44.854Z,28.11
2023-05-14T12:51:13.233Z,28.39
2023-05-14T12:53:41.281Z,28.75
2023-05-14T12:56:09.572Z,29.09
2023-05-14T12:58:37.367Z,29.27
2023-05-14T13:01:05.925Z,28.96
2023-05-14T13:03:33.686Z,28.52
2023-05-14T13:06:01.370Z,28.53
2023-05-14T13:08:28.994Z,28.45
2023-05-14T13:10:56.763Z,28.36
2023-05-14T13:13:24.480Z,28.42
2023-05-14T13:15:53.204Z,28.43
2023-05-14T13:18:20.955Z,28.59
2023-05-14T13:20:48.715Z,28.84
2023-05-14T13:23:16.326Z,28.94
2023-05-14T13:25:43.928Z,29.24
2023-05-14T13:28:12.690Z,29.63
2023-05-14T13:30:40.304Z,29.83
2023-05-14T13:33:08.057Z,29.38
2023-05-14T13:35:35.901Z,29.05
2023-05-14T13:38:03.503Z,29.24
2023-05-14T13:40:31.131Z,29.45
2023-05-14T13:42:58.710Z,29.46
2023-05-14T13:45:26.420Z,29.40
2023-05-14T13:47:56.440Z,28.93
2023-05-14T13:50:24.113Z,28.84
2023-05-14T13:52:52.115Z,28.50
2023-05-14T13:55:19.709Z,27.87
2023-05-14T13:57:47.328Z,27.16
2023-05-14T14:00:15.666Z,26.71
2023-05-14T14:02:43.335Z,26.79
2023-05-14T14:05:10.979Z,27.35
2023-05-14T14:07:40.455Z,27.80
2023-05-14T14:10:09.085Z,27.71
2023-05-14T14:12:37.112Z,27.70
2023-05-14T14:15:06.091Z,27.49
2023-05-14T14:17:34.885Z,27.08
2023-05-14T14:20:05.112Z,26.69
2023-05-14T14:22:32.966Z,26.52
2023-05-14T14:25:00.866Z,26.28
2023-05-14T14:27:30.963Z,26.01
2023-05-14T14:29:58.585Z,25.76
2023-05-14T14:32:26.337Z,25.77
2023-05-14T14:34:54.021Z,26.34
2023-05-14T14:37:23.228Z,26.92
2023-05-14T14:39:51.079Z,27.37
2023-05-14T14:42:18.727Z,27.46
2023-05-14T14:44:46.306Z,27.56
2023-05-14T14:47:14.039Z,27.33
2023-05-14T14:49:41.670Z,26.96
2023-05-14T14:52:09.300Z,26.62
2023-05-14T14:54:36.899Z,26.33
2023-05-14T14:57:04.812Z,26.19
2023-05-14T14:59:32.410Z,26.39
2023-05-14T15:02:00.066Z,26.70
2023-05-14T15:04:28.471Z,26.70
2023-05-14T15:06:56.051Z,26.57
2023-05-14T15:09:23.628Z,26.52
2023-05-14T15:11:51.293Z,26.52
2023-05-14T15:14:19.055Z,26.59
2023-05-14T15:16:49.523Z,26.57
2023-05-14T15:19:18.586Z,26.40
2023-05-14T15:21:46.436Z,26.27
2023-05-14T15:24:14.091Z,26.13
2023-05-14T15:26:41.884Z,25.99
2023-05-14T15:29:09.583Z,25.82
2023-05-14T15:31:37.286Z,25.60
2023-05-14T15:34:05.320Z,25.46
2023-05-14T15:36:32.992Z,25.31
2023-05-14T15:39:00.671Z,25.16
2023-05-14T15:41:28.760Z,24.96
2023-05-14T15:43:58.092Z,24.78
2023-05-14T15:46:26.600Z,24.62
2023-05-14T15:48:54.204Z,24.46
2023-05-14T15:51:21.810Z,24.31
2023-05-14T15:53:49.546Z,24.19
2023-05-14T15:56:17.158Z,24.10
2023-05-14T15:58:44.736Z,24.05
2023-05-14T16:01:12.700Z,23.96
2023-05-14T16:03:40.665Z,23.93
2023-05-14T16:06:08.532Z,23.87
2023-05-14T16:08:36.105Z,23.77
2023-05-14T16:11:03.883Z,23.67
2023-05-14T16:13:31.597Z,23.59
2023-05-14T16:15:59.636Z,23.61
2023-05-14T16:18:27.392Z,23.69
2023-05-14T16:20:56.214Z,23.78
2023-05-14T16:23:23.807Z,23.77
2023-05-14T16:25:51.510Z,23.81
2023-05-14T16:28:19.152Z,23.90
2023-05-14T16:30:46.811Z,23.95
2023-05-14T16:33:14.452Z,24.03
2023-05-14T16:35:42.868Z,24.13
2023-05-14T16:38:10.557Z,24.16
2023-05-14T16:40:38.163Z,24.27
2023-05-14T16:43:06.096Z,24.36
2023-05-14T16:45:34.887Z,24.38
2023-05-14T16:48:03.595Z,24.39
2023-05-14T16:50:31.404Z,24.36
2023-05-14T16:52:59.025Z,24.28
2023-05-14T16:55:26.688Z,24.24
2023-05-14T16:57:54.362Z,24.24
2023-05-14T17:00:22.034Z,24.23
2023-05-14T17:02:50.992Z,24.18
2023-05-14T17:05:18.664Z,24.14
2023-05-14T17:07:46.413Z,24.14
2023-05-14T17:10:14.000Z,24.24
2023-05-14T17:12:41.574Z,24.46
2023-05-14T17:15:08.992Z,24.48
2023-05-14T17:17:36.753Z,24.41
2023-05-14T17:20:08.062Z,24.46
2023-05-14T17:22:36.030Z,24.70
2023-05-14T17:25:03.910Z,24.88
2023-05-14T17:27:33.189Z,24.91
2023-05-14T17:30:01.277Z,24.81
2023-05-14T17:32:29.732Z,24.63
2023-05-14T17:34:57.800Z,24.40
2023-05-14T17:37:26.716Z,24.15
2023-05-14T17:39:54.410Z,23.84
2023-05-14T17:42:22.069Z,23.60
2023-05-14T17:44:49.693Z,23.38
2023-05-14T17:47:20.434Z,23.16
2023-05-14T17:49:48.075Z,22.93
2023-05-14T17:52:15.653Z,22.73
2023-05-14T17:54:43.334Z,22.56
2023-05-14T17:57:11.086Z,22.39
2023-05-14T17:59:38.728Z,22.22
2023-05-14T18:02:07.554Z,22.06
2023-05-14T18:04:35.513Z,21.92
2023-05-14T18:07:03.252Z,21.80
2023-05-14T18:09:30.962Z,21.66
2023-05-14T18:11:58.558Z,21.53
2023-05-14T18:14:26.230Z,21.44
2023-05-14T18:16:55.627Z,21.41
2023-05-14T18:19:23.802Z,21.30
2023-05-14T18:21:51.441Z,21.22
2023-05-14T18:24:19.037Z,21.17
2023-05-14T18:26:46.697Z,21.10
2023-05-14T18:29:14.399Z,21.03
2023-05-14T18:31:42.045Z,20.97
2023-05-14T18:34:09.743Z,20.92
2023-05-14T18:36:37.704Z,20.89
2023-05-14T18:39:05.317Z,20.85
2023-05-14T18:41:32.899Z,20.76
2023-05-14T18:44:01.890Z,20.70
2023-05-14T18:46:29.967Z,20.63
2023-05-14T18:48:57.660Z,20.57
2023-05-14T18:51:25.316Z,20.49
2023-05-14T18:53:52.903Z,20.38
2023-05-14T18:56:21.521Z,20.31
2023-05-14T18:58:49.213Z,20.28
2023-05-14T19:01:16.838Z,20.26
2023-05-14T19:03:44.671Z,20.14
2023-05-14T19:06:12.488Z,20.04
2023-05-14T19:08:40.094Z,19.98
2023-05-14T19:11:07.907Z,19.93
2023-05-14T19:13:35.596Z,19.84
2023-05-14T19:16:03.395Z,19.77
2023-05-14T19:18:31.073Z,19.70
2023-05-14T19:20:58.996Z,19.65
2023-05-14T19:23:26.630Z,19.55
2023-05-14T19:25:54.325Z,19.46
2023-05-14T19:28:22.213Z,19.37
2023-05-14T19:30:51.053Z,19.28
2023-05-14T19:33:19.061Z,19.19
2023-05-14T19:35:47.358Z,19.09
2023-05-14T19:38:15.183Z,19.00
2023-05-14T19:40:43.750Z,18.89
2023-05-14T19:43:12.892Z,18.80
2023-05-14T19:45:42.587Z,18.74
2023-05-14T19:48:12.344Z,18.68
2023-05-14T19:50:41.345Z,18.62
2023-05-14T19:53:09.005Z,18.57
2023-05-14T19:55:36.998Z,18.50
2023-05-14T19:58:04.881Z,18.44
2023-05-14T20:00:32.592Z,18.41
2023-05-14T20:03:00.883Z,18.34
2023-05-14T20:05:28.896Z,18.22
2023-05-14T20:07:56.583Z,18.15
2023-05-14T20:10:24.477Z,18.06
2023-05-14T20:12:52.261Z,17.99
2023-05-14T20:15:19.891Z,17.92
2023-05-14T20:17:47.680Z,17.87
2023-05-14T20:20:16.571Z,17.82
2023-05-14T20:22:44.575Z,17.75
2023-05-14T20:25:12.299Z,17.70
2023-05-14T20:27:40.071Z,17.66
2023-05-14T20:30:08.299Z,17.60
2023-05-14T20:32:35.973Z,17.53
2023-05-14T20:35:04.427Z,17.45
2023-05-14T20:37:32.984Z,17.39
2023-05-14T20:40:02.229Z,17.33
2023-05-14T20:42:29.943Z,17.24
2023-05-14T20:44:57.849Z,17.14
2023-05-14T20:47:26.598Z,17.07
2023-05-14T20:49:54.384Z,17.03
2023-05-14T20:52:22.145Z,16.97
2023-05-14T20:54:49.871Z,16.92
2023-05-14T20:57:18.448Z,16.88
2023-05-14T20:59:47.362Z,16.83
2023-05-14T21:02:15.767Z,16.78
2023-05-14T21:04:43.729Z,16.74
2023-05-14T21:07:11.459Z,16.66
2023-05-14T21:09:39.060Z,16.58
2023-05-14T21:12:07.196Z,16.52
2023-05-14T21:14:34.844Z,16.49
2023-05-14T21:17:02.482Z,16.47
2023-05-14T21:19:30.148Z,16.44
2023-05-14T21:21:57.736Z,16.42
2023-05-14T21:24:25.384Z,16.42
2023-05-14T21:26:53.665Z,16.43
2023-05-14T21:29:21.491Z,16.40
2023-05-14T21:31:49.200Z,16.35
2023-05-14T21:34:16.826Z,16.31
2023-05-14T21:36:44.438Z,16.28
2023-05-14T21:39:12.089Z,16.27
2023-05-14T21:41:39.765Z,16.25
2023-05-14T21:44:07.435Z,16.24
2023-05-14T21:46:35.086Z,16.20
2023-05-14T21:49:03.062Z,16.16
2023-05-14T21:51:32.043Z,16.15
2023-05-14T21:53:59.654Z,16.15
2023-05-14T21:56:27.417Z,16.15
2023-05-14T21:58:55.979Z,16.14
2023-05-14T22:01:23.646Z,16.11
2023-05-14T22:03:51.316Z,16.07
2023-05-14T22:06:19.017Z,16.04
2023-05-14T22:08:46.634Z,15.98
2023-05-14T22:11:14.299Z,15.94
2023-05-14T22:13:41.903Z,15.93
2023-05-14T22:16:13.239Z,15.93
2023-05-14T22:21:09.192Z,15.87
2023-05-14T22:23:37.586Z,15.85
2023-05-14T22:26:05.278Z,15.84
2023-05-14T22:28:32.885Z,15.82
2023-05-14T22:31:00.683Z,15.78
2023-05-14T22:33:28.368Z,15.76
2023-05-14T22:35:56.026Z,15.73
2023-05-14T22:38:23.768Z,15.69
2023-05-14T22:40:51.464Z,15.66
2023-05-14T22:43:19.076Z,15.67
2023-05-14T22:45:46.669Z,15.65
2023-05-14T22:48:14.312Z,15.62
2023-05-14T22:50:42.014Z,15.58
2023-05-14T22:53:09.643Z,15.50
2023-05-14T22:55:37.264Z,15.46
2023-05-14T22:58:05.572Z,15.44
2023-05-14T23:00:33.211Z,15.39
2023-05-14T23:03:01.153Z,15.39
2023-05-14T23:05:28.860Z,15.35
2023-05-14T23:07:56.477Z,15.29
2023-05-14T23:10:24.157Z,15.23
2023-05-14T23:12:51.762Z,15.19
2023-05-14T23:15:19.476Z,15.16
2023-05-14T23:17:47.362Z,15.15
2023-05-14T23:20:15.044Z,15.14
2023-05-14T23:22:42.658Z,15.11
2023-05-14T23:25:10.326Z,15.10
2023-05-14T23:27:38.041Z,15.09
2023-05-14T23:30:06.806Z,15.07
2023-05-14T23:32:34.417Z,15.06
2023-05-14T23:35:02.074Z,15.02
2023-05-14T23:37:29.843Z,14.96
2023-05-14T23:39:57.500Z,14.90
2023-05-14T23:42:25.527Z,14.85
2023-05-14T23:44:53.117Z,14.79
2023-05-14T23:47:20.800Z,14.76
2023-05-14T23:49:48.539Z,14.75
2023-05-14T23:52:16.171Z,14.74
2023-05-14T23:54:43.753Z,14.75
2023-05-14T23:57:14.215Z,14.77
2023-05-14T23:59:42.375Z,14.78
